AAL2031 KCOS-KOKC
Flight info
| Callsign | AAL2031 |
|---|---|
| Flight time | 1h 13m |
| Altitude | 37000 |
| Route | BRK JEWLS ROLLS CAMET3 |
| Aircraft | B738/M-SDE2E3FGHIRWXY/LB1 |
Departure
| Time | 2026-04-28 00:29 |
|---|---|
| Airport | City of Colorado Springs Municipal Airport (KCOS) |
Arrival
| Time | 2026-04-28 01:42 |
|---|---|
| Airport | OKC Will Rogers World Airport (KOKC) |
| Time | Latitude | Longitude | Altitude | Speed | Heading |
|---|---|---|---|---|---|
| 2026-04-27 23:47 | 38.79889 | -104.70159 | 6193 ft | 0 kts | 110° |
| 2026-04-28 00:18 | 38.79895 | -104.70181 | 6193 ft | 4 kts | 106° |
| 2026-04-28 00:18 | 38.79901 | -104.70214 | 6191 ft | 4 kts | 89° |
| 2026-04-28 00:18 | 38.79895 | -104.70241 | 6191 ft | 4 kts | 26° |
| 2026-04-28 00:19 | 38.79889 | -104.70244 | 6192 ft | 0 kts | 0° |
| 2026-04-28 00:22 | 38.79902 | -104.70244 | 6191 ft | 4 kts | 0° |
| 2026-04-28 00:22 | 38.79966 | -104.70244 | 6193 ft | 14 kts | 0° |
| 2026-04-28 00:22 | 38.80055 | -104.70232 | 6193 ft | 12 kts | 31° |
| 2026-04-28 00:22 | 38.80081 | -104.70118 | 6193 ft | 15 kts | 67° |
| 2026-04-28 00:23 | 38.80187 | -104.70085 | 6193 ft | 18 kts | 360° |
| 2026-04-28 00:23 | 38.80317 | -104.70078 | 6193 ft | 15 kts | 6° |
| 2026-04-28 00:23 | 38.80361 | -104.69972 | 6193 ft | 17 kts | 89° |
| 2026-04-28 00:23 | 38.80361 | -104.69806 | 6193 ft | 21 kts | 90° |
| 2026-04-28 00:24 | 38.80362 | -104.69642 | 6193 ft | 6 kts | 89° |
| 2026-04-28 00:24 | 38.80362 | -104.69571 | 6193 ft | 11 kts | 90° |
| 2026-04-28 00:24 | 38.80363 | -104.69443 | 6193 ft | 17 kts | 89° |
| 2026-04-28 00:24 | 38.80361 | -104.69273 | 6193 ft | 21 kts | 90° |
| 2026-04-28 00:25 | 38.80362 | -104.69074 | 6193 ft | 24 kts | 90° |
| 2026-04-28 00:25 | 38.80368 | -104.68895 | 6193 ft | 13 kts | 66° |
| 2026-04-28 00:25 | 38.80449 | -104.68904 | 6193 ft | 16 kts | 317° |
| 2026-04-28 00:25 | 38.80535 | -104.69012 | 6193 ft | 19 kts | 315° |
| 2026-04-28 00:26 | 38.80637 | -104.69141 | 6193 ft | 22 kts | 315° |
| 2026-04-28 00:26 | 38.80752 | -104.69287 | 6193 ft | 23 kts | 315° |
| 2026-04-28 00:26 | 38.80777 | -104.69419 | 6193 ft | 16 kts | 228° |
| 2026-04-28 00:26 | 38.80735 | -104.69509 | 6195 ft | 9 kts | 275° |
| 2026-04-28 00:27 | 38.80770 | -104.69570 | 6195 ft | 9 kts | 315° |
| 2026-04-28 00:27 | 38.80777 | -104.69579 | 6195 ft | 0 kts | 315° |
| 2026-04-28 00:27 | 38.80779 | -104.69582 | 6195 ft | 3 kts | 315° |
| 2026-04-28 00:28 | 38.80870 | -104.69696 | 6195 ft | 47 kts | 315° |
| 2026-04-28 00:28 | 38.81266 | -104.70200 | 6193 ft | 111 kts | 315° |
| 2026-04-28 00:28 | 38.81949 | -104.71064 | 6195 ft | 163 kts | 314° |
| 2026-04-28 00:28 | 38.82741 | -104.72189 | 6762 ft | 171 kts | 313° |
| 2026-04-28 00:29 | 38.83788 | -104.73161 | 6912 ft | 203 kts | 349° |
| 2026-04-28 00:29 | 38.85166 | -104.73068 | 7562 ft | 202 kts | 27° |
| 2026-04-28 00:29 | 38.86365 | -104.72043 | 7739 ft | 217 kts | 51° |
| 2026-04-28 00:29 | 38.87433 | -104.70615 | 8081 ft | 229 kts | 49° |
| 2026-04-28 00:30 | 38.88684 | -104.69219 | 8396 ft | 245 kts | 42° |
| 2026-04-28 00:30 | 38.90072 | -104.67836 | 8736 ft | 260 kts | 43° |
| 2026-04-28 00:30 | 38.91505 | -104.66346 | 9223 ft | 268 kts | 43° |
| 2026-04-28 00:30 | 38.92778 | -104.64562 | 9438 ft | 283 kts | 68° |
| 2026-04-28 00:31 | 38.93231 | -104.62135 | 10009 ft | 283 kts | 96° |
| 2026-04-28 00:31 | 38.92749 | -104.59718 | 10495 ft | 287 kts | 119° |
| 2026-04-28 00:31 | 38.91698 | -104.57431 | 10666 ft | 309 kts | 125° |
| 2026-04-28 00:31 | 38.90474 | -104.55064 | 10968 ft | 326 kts | 127° |
| 2026-04-28 00:32 | 38.89180 | -104.52622 | 11505 ft | 334 kts | 126° |
| 2026-04-28 00:32 | 38.87869 | -104.50141 | 12168 ft | 338 kts | 127° |
| 2026-04-28 00:32 | 38.86538 | -104.47600 | 12745 ft | 346 kts | 127° |
| 2026-04-28 00:32 | 38.85194 | -104.45010 | 13352 ft | 352 kts | 127° |
| 2026-04-28 00:33 | 38.83833 | -104.42373 | 13961 ft | 357 kts | 128° |
| 2026-04-28 00:33 | 38.82457 | -104.39696 | 14540 ft | 361 kts | 128° |
| 2026-04-28 00:33 | 38.81068 | -104.36989 | 15166 ft | 364 kts | 128° |
| 2026-04-28 00:33 | 38.79686 | -104.34294 | 15767 ft | 368 kts | 128° |
| 2026-04-28 00:34 | 38.78272 | -104.31538 | 16377 ft | 373 kts | 128° |
| 2026-04-28 00:34 | 38.76833 | -104.28737 | 16941 ft | 378 kts | 129° |
| 2026-04-28 00:34 | 38.75381 | -104.25910 | 17523 ft | 382 kts | 129° |
| 2026-04-28 00:34 | 38.73909 | -104.23047 | 18120 ft | 386 kts | 129° |
| 2026-04-28 00:35 | 38.72426 | -104.20164 | 18610 ft | 391 kts | 129° |
| 2026-04-28 00:35 | 38.70919 | -104.17237 | 19055 ft | 395 kts | 129° |
| 2026-04-28 00:35 | 38.69400 | -104.14289 | 19611 ft | 398 kts | 129° |
| 2026-04-28 00:35 | 38.67865 | -104.11314 | 20092 ft | 403 kts | 129° |
| 2026-04-28 00:36 | 38.66330 | -104.08341 | 20539 ft | 408 kts | 129° |
| 2026-04-28 00:36 | 38.64756 | -104.05297 | 21007 ft | 412 kts | 129° |
| 2026-04-28 00:36 | 38.63168 | -104.02226 | 21460 ft | 416 kts | 129° |
| 2026-04-28 00:36 | 38.61559 | -103.99119 | 21922 ft | 421 kts | 129° |
| 2026-04-28 00:37 | 38.59933 | -103.95981 | 22381 ft | 425 kts | 129° |
| 2026-04-28 00:37 | 38.58291 | -103.92812 | 22822 ft | 430 kts | 129° |
| 2026-04-28 00:37 | 38.56631 | -103.89612 | 23269 ft | 434 kts | 129° |
| 2026-04-28 00:37 | 38.54952 | -103.86382 | 23662 ft | 437 kts | 129° |
| 2026-04-28 00:38 | 38.53260 | -103.83142 | 24045 ft | 440 kts | 130° |
| 2026-04-28 00:38 | 38.51462 | -103.79950 | 24275 ft | 445 kts | 134° |
| 2026-04-28 00:38 | 38.49592 | -103.76834 | 24541 ft | 450 kts | 135° |
| 2026-04-28 00:38 | 38.47655 | -103.73682 | 24958 ft | 451 kts | 135° |
| 2026-04-28 00:39 | 38.45712 | -103.70537 | 25389 ft | 452 kts | 136° |
| 2026-04-28 00:39 | 38.43761 | -103.67370 | 25737 ft | 456 kts | 136° |
| 2026-04-28 00:39 | 38.41799 | -103.64173 | 26080 ft | 459 kts | 136° |
| 2026-04-28 00:39 | 38.39825 | -103.60942 | 26422 ft | 463 kts | 136° |
| 2026-04-28 00:40 | 38.37847 | -103.57695 | 26777 ft | 465 kts | 136° |
| 2026-04-28 00:40 | 38.35859 | -103.54426 | 27125 ft | 468 kts | 136° |
| 2026-04-28 00:40 | 38.33856 | -103.51133 | 27466 ft | 471 kts | 136° |
| 2026-04-28 00:40 | 38.31841 | -103.47822 | 27713 ft | 475 kts | 136° |
| 2026-04-28 00:41 | 38.29798 | -103.44473 | 27890 ft | 482 kts | 136° |
| 2026-04-28 00:41 | 38.28433 | -103.42238 | 28100 ft | 483 kts | 137° |
| 2026-04-28 00:41 | 38.26366 | -103.38850 | 28483 ft | 484 kts | 137° |
| 2026-04-28 00:41 | 38.24294 | -103.35456 | 28821 ft | 486 kts | 137° |
| 2026-04-28 00:42 | 38.22213 | -103.32054 | 29102 ft | 489 kts | 137° |
| 2026-04-28 00:42 | 38.19426 | -103.27504 | 29483 ft | 493 kts | 137° |
| 2026-04-28 00:42 | 38.17999 | -103.25177 | 29669 ft | 494 kts | 137° |
| 2026-04-28 00:42 | 38.15874 | -103.21715 | 29946 ft | 497 kts | 137° |
| 2026-04-28 00:43 | 38.13742 | -103.18246 | 30170 ft | 499 kts | 138° |
| 2026-04-28 00:43 | 38.11634 | -103.14816 | 30455 ft | 499 kts | 138° |
| 2026-04-28 00:43 | 38.09492 | -103.11335 | 30612 ft | 503 kts | 138° |
| 2026-04-28 00:44 | 38.05129 | -103.04271 | 30902 ft | 511 kts | 137° |
| 2026-04-28 00:44 | 38.02936 | -103.00718 | 31246 ft | 510 kts | 137° |
| 2026-04-28 00:44 | 38.00756 | -102.97184 | 31623 ft | 507 kts | 138° |
| 2026-04-28 00:44 | 37.98586 | -102.93670 | 32000 ft | 505 kts | 138° |
| 2026-04-28 00:45 | 37.96420 | -102.90169 | 32298 ft | 504 kts | 138° |
| 2026-04-28 00:45 | 37.94255 | -102.86678 | 32573 ft | 503 kts | 138° |
| 2026-04-28 00:45 | 37.92082 | -102.83184 | 32693 ft | 507 kts | 138° |
| 2026-04-28 00:45 | 37.89890 | -102.79668 | 32869 ft | 509 kts | 138° |
| 2026-04-28 00:46 | 37.87698 | -102.76148 | 33177 ft | 508 kts | 138° |
| 2026-04-28 00:46 | 37.85507 | -102.72630 | 33461 ft | 508 kts | 138° |
| 2026-04-28 00:46 | 37.83321 | -102.69124 | 33724 ft | 507 kts | 138° |
| 2026-04-28 00:46 | 37.81163 | -102.65667 | 33970 ft | 507 kts | 138° |
| 2026-04-28 00:47 | 37.78980 | -102.62170 | 34227 ft | 506 kts | 138° |
| 2026-04-28 00:47 | 37.76801 | -102.58686 | 34466 ft | 505 kts | 138° |
| 2026-04-28 00:47 | 37.74617 | -102.55200 | 34695 ft | 504 kts | 138° |
| 2026-04-28 00:47 | 37.72439 | -102.51726 | 34936 ft | 503 kts | 138° |
| 2026-04-28 00:48 | 37.70267 | -102.48266 | 35170 ft | 502 kts | 138° |
| 2026-04-28 00:48 | 37.68095 | -102.44809 | 35409 ft | 501 kts | 138° |
| 2026-04-28 00:48 | 37.65926 | -102.41361 | 35630 ft | 501 kts | 138° |
| 2026-04-28 00:48 | 37.63764 | -102.37928 | 35875 ft | 498 kts | 138° |
| 2026-04-28 00:49 | 37.61613 | -102.34513 | 36153 ft | 496 kts | 138° |
| 2026-04-28 00:49 | 37.59469 | -102.31113 | 36443 ft | 493 kts | 138° |
| 2026-04-28 00:49 | 37.57363 | -102.27779 | 36663 ft | 492 kts | 138° |
| 2026-04-28 00:49 | 37.55231 | -102.24409 | 36829 ft | 492 kts | 138° |
| 2026-04-28 00:50 | 37.53086 | -102.21025 | 36844 ft | 494 kts | 138° |
| 2026-04-28 00:50 | 37.48783 | -102.14245 | 36864 ft | 494 kts | 138° |
| 2026-04-28 00:51 | 37.44501 | -102.07501 | 36881 ft | 492 kts | 138° |
| 2026-04-28 00:51 | 37.40237 | -102.00797 | 36870 ft | 488 kts | 138° |
| 2026-04-28 00:52 | 37.35994 | -101.94142 | 36885 ft | 486 kts | 138° |
| 2026-04-28 00:52 | 37.31790 | -101.87567 | 36893 ft | 485 kts | 139° |
| 2026-04-28 00:53 | 37.27552 | -101.80954 | 36893 ft | 485 kts | 139° |
| 2026-04-28 00:53 | 37.23309 | -101.74346 | 36923 ft | 487 kts | 139° |
| 2026-04-28 00:54 | 37.19048 | -101.67721 | 36916 ft | 489 kts | 139° |
| 2026-04-28 00:54 | 37.14766 | -101.61074 | 36925 ft | 490 kts | 138° |
| 2026-04-28 00:55 | 37.10498 | -101.54460 | 36941 ft | 491 kts | 138° |
| 2026-04-28 00:55 | 37.06187 | -101.47795 | 36945 ft | 493 kts | 138° |
| 2026-04-28 00:56 | 37.01854 | -101.41110 | 36942 ft | 495 kts | 138° |
| 2026-04-28 00:56 | 36.97501 | -101.34407 | 36928 ft | 496 kts | 138° |
| 2026-04-28 00:57 | 36.93180 | -101.27764 | 36864 ft | 496 kts | 139° |
| 2026-04-28 00:57 | 36.88833 | -101.21093 | 36909 ft | 494 kts | 139° |
| 2026-04-28 00:58 | 36.84493 | -101.14449 | 36915 ft | 493 kts | 139° |
| 2026-04-28 00:58 | 36.80156 | -101.07823 | 36912 ft | 492 kts | 139° |
| 2026-04-28 00:59 | 36.75820 | -101.01213 | 36913 ft | 491 kts | 139° |
| 2026-04-28 00:59 | 36.71490 | -100.94624 | 36880 ft | 490 kts | 139° |
| 2026-04-28 01:00 | 36.67196 | -100.88104 | 36887 ft | 489 kts | 139° |
| 2026-04-28 01:00 | 36.62875 | -100.81555 | 36890 ft | 488 kts | 139° |
| 2026-04-28 01:01 | 36.58563 | -100.75032 | 36898 ft | 488 kts | 139° |
| 2026-04-28 01:01 | 36.54238 | -100.68503 | 36922 ft | 488 kts | 139° |
| 2026-04-28 01:02 | 36.49920 | -100.61996 | 36891 ft | 487 kts | 139° |
| 2026-04-28 01:02 | 36.45637 | -100.55554 | 36895 ft | 487 kts | 139° |
| 2026-04-28 01:03 | 36.41320 | -100.49076 | 36908 ft | 487 kts | 139° |
| 2026-04-28 01:03 | 36.36994 | -100.42595 | 36904 ft | 488 kts | 139° |
| 2026-04-28 01:04 | 36.32648 | -100.36100 | 36649 ft | 492 kts | 139° |
| 2026-04-28 01:04 | 36.30457 | -100.32829 | 36304 ft | 489 kts | 139° |
| 2026-04-28 01:04 | 36.28329 | -100.29646 | 35893 ft | 484 kts | 139° |
| 2026-04-28 01:04 | 36.26182 | -100.26437 | 35521 ft | 479 kts | 139° |
| 2026-04-28 01:05 | 36.24060 | -100.23272 | 35135 ft | 476 kts | 139° |
| 2026-04-28 01:05 | 36.21954 | -100.20137 | 34760 ft | 472 kts | 139° |
| 2026-04-28 01:05 | 36.19858 | -100.17023 | 34362 ft | 470 kts | 139° |
| 2026-04-28 01:05 | 36.17770 | -100.13925 | 33966 ft | 467 kts | 139° |
| 2026-04-28 01:06 | 36.15692 | -100.10845 | 33527 ft | 465 kts | 139° |
| 2026-04-28 01:06 | 36.13629 | -100.07788 | 33118 ft | 462 kts | 139° |
| 2026-04-28 01:06 | 36.11570 | -100.04738 | 32715 ft | 458 kts | 139° |
| 2026-04-28 01:06 | 36.09536 | -100.01727 | 32332 ft | 454 kts | 139° |
| 2026-04-28 01:07 | 36.07512 | -99.98736 | 31926 ft | 451 kts | 139° |
| 2026-04-28 01:07 | 36.05506 | -99.95773 | 31569 ft | 447 kts | 139° |
| 2026-04-28 01:07 | 36.03516 | -99.92836 | 31203 ft | 444 kts | 139° |
| 2026-04-28 01:07 | 36.01538 | -99.89920 | 30839 ft | 441 kts | 139° |
| 2026-04-28 01:08 | 35.99573 | -99.87026 | 30479 ft | 438 kts | 139° |
| 2026-04-28 01:08 | 35.97617 | -99.84153 | 30120 ft | 435 kts | 139° |
| 2026-04-28 01:08 | 35.95674 | -99.81303 | 29712 ft | 432 kts | 139° |
| 2026-04-28 01:08 | 35.93753 | -99.78476 | 29316 ft | 429 kts | 139° |
| 2026-04-28 01:09 | 35.91868 | -99.75705 | 28941 ft | 425 kts | 139° |
| 2026-04-28 01:09 | 35.89975 | -99.72923 | 28561 ft | 421 kts | 139° |
| 2026-04-28 01:09 | 35.88100 | -99.70174 | 28188 ft | 418 kts | 139° |
| 2026-04-28 01:09 | 35.86235 | -99.67444 | 27825 ft | 414 kts | 139° |
| 2026-04-28 01:10 | 35.84388 | -99.64740 | 27443 ft | 411 kts | 139° |
| 2026-04-28 01:10 | 35.82546 | -99.62048 | 27087 ft | 408 kts | 139° |
| 2026-04-28 01:10 | 35.80723 | -99.59381 | 26740 ft | 405 kts | 139° |
| 2026-04-28 01:10 | 35.78915 | -99.56738 | 26372 ft | 402 kts | 140° |
| 2026-04-28 01:11 | 35.77110 | -99.54111 | 26022 ft | 399 kts | 140° |
| 2026-04-28 01:11 | 35.75322 | -99.51508 | 25674 ft | 397 kts | 140° |
| 2026-04-28 01:11 | 35.73557 | -99.48896 | 25330 ft | 399 kts | 135° |
| 2026-04-28 01:11 | 35.72287 | -99.45793 | 24935 ft | 416 kts | 110° |
| 2026-04-28 01:12 | 35.71857 | -99.42303 | 24758 ft | 417 kts | 98° |
| 2026-04-28 01:12 | 35.71653 | -99.38739 | 24512 ft | 419 kts | 97° |
| 2026-04-28 01:12 | 35.71481 | -99.35128 | 24205 ft | 425 kts | 97° |
| 2026-04-28 01:12 | 35.71310 | -99.31489 | 23840 ft | 425 kts | 97° |
| 2026-04-28 01:13 | 35.71130 | -99.27858 | 23464 ft | 425 kts | 97° |
| 2026-04-28 01:13 | 35.70736 | -99.20620 | 22647 ft | 422 kts | 97° |
| 2026-04-28 01:13 | 35.70528 | -99.17027 | 22265 ft | 419 kts | 97° |
| 2026-04-28 01:14 | 35.70317 | -99.13456 | 21887 ft | 417 kts | 97° |
| 2026-04-28 01:14 | 35.70104 | -99.09897 | 21516 ft | 416 kts | 97° |
| 2026-04-28 01:14 | 35.69893 | -99.06404 | 21152 ft | 414 kts | 97° |
| 2026-04-28 01:14 | 35.69677 | -99.02835 | 20792 ft | 412 kts | 97° |
| 2026-04-28 01:15 | 35.69467 | -98.99379 | 20449 ft | 410 kts | 97° |
| 2026-04-28 01:15 | 35.69253 | -98.95882 | 20094 ft | 408 kts | 97° |
| 2026-04-28 01:15 | 35.69040 | -98.92408 | 19720 ft | 408 kts | 97° |
| 2026-04-28 01:15 | 35.68826 | -98.88926 | 19364 ft | 406 kts | 97° |
| 2026-04-28 01:16 | 35.68611 | -98.85455 | 18993 ft | 406 kts | 96° |
| 2026-04-28 01:16 | 35.68396 | -98.82002 | 18642 ft | 404 kts | 96° |
| 2026-04-28 01:16 | 35.68184 | -98.78582 | 18274 ft | 397 kts | 96° |
| 2026-04-28 01:16 | 35.67974 | -98.75231 | 17887 ft | 389 kts | 96° |
| 2026-04-28 01:17 | 35.67769 | -98.71954 | 17598 ft | 378 kts | 96° |
| 2026-04-28 01:17 | 35.67568 | -98.68777 | 17305 ft | 368 kts | 96° |
| 2026-04-28 01:17 | 35.67370 | -98.65655 | 16993 ft | 363 kts | 96° |
| 2026-04-28 01:17 | 35.67173 | -98.62577 | 16679 ft | 359 kts | 96° |
| 2026-04-28 01:18 | 35.66978 | -98.59542 | 16383 ft | 364 kts | 96° |
| 2026-04-28 01:18 | 35.66772 | -98.56366 | 16071 ft | 369 kts | 96° |
| 2026-04-28 01:18 | 35.66576 | -98.53316 | 15993 ft | 353 kts | 96° |
| 2026-04-28 01:18 | 35.66389 | -98.50399 | 15872 ft | 333 kts | 96° |
| 2026-04-28 01:19 | 35.66210 | -98.47634 | 15726 ft | 315 kts | 96° |
| 2026-04-28 01:19 | 35.66096 | -98.45881 | 15636 ft | 304 kts | 96° |
| 2026-04-28 01:19 | 35.65873 | -98.42476 | 15183 ft | 297 kts | 96° |
| 2026-04-28 01:19 | 35.65706 | -98.39953 | 14841 ft | 295 kts | 96° |
| 2026-04-28 01:20 | 35.65455 | -98.37460 | 14501 ft | 292 kts | 104° |
| 2026-04-28 01:20 | 35.64985 | -98.35038 | 14198 ft | 290 kts | 107° |
| 2026-04-28 01:20 | 35.64476 | -98.32661 | 13923 ft | 285 kts | 107° |
| 2026-04-28 01:20 | 35.63978 | -98.30317 | 13645 ft | 281 kts | 107° |
| 2026-04-28 01:21 | 35.63499 | -98.27995 | 13283 ft | 280 kts | 107° |
| 2026-04-28 01:21 | 35.63033 | -98.25680 | 12954 ft | 278 kts | 107° |
| 2026-04-28 01:21 | 35.62575 | -98.23379 | 12648 ft | 275 kts | 107° |
| 2026-04-28 01:21 | 35.62130 | -98.21137 | 12325 ft | 272 kts | 107° |
| 2026-04-28 01:22 | 35.61682 | -98.18875 | 11991 ft | 270 kts | 107° |
| 2026-04-28 01:22 | 35.61263 | -98.16648 | 11760 ft | 265 kts | 107° |
| 2026-04-28 01:22 | 35.60859 | -98.14447 | 11528 ft | 263 kts | 107° |
| 2026-04-28 01:22 | 35.60455 | -98.12248 | 11304 ft | 263 kts | 107° |
| 2026-04-28 01:23 | 35.60051 | -98.10053 | 11066 ft | 263 kts | 108° |
| 2026-04-28 01:23 | 35.59644 | -98.07851 | 10829 ft | 263 kts | 108° |
| 2026-04-28 01:23 | 35.59243 | -98.05684 | 10588 ft | 263 kts | 108° |
| 2026-04-28 01:23 | 35.58839 | -98.03505 | 10316 ft | 260 kts | 108° |
| 2026-04-28 01:24 | 35.58443 | -98.01368 | 10171 ft | 251 kts | 109° |
| 2026-04-28 01:24 | 35.58061 | -97.99305 | 10046 ft | 246 kts | 109° |
| 2026-04-28 01:24 | 35.57560 | -97.97313 | 9882 ft | 244 kts | 118° |
| 2026-04-28 01:24 | 35.56936 | -97.95353 | 9639 ft | 247 kts | 118° |
| 2026-04-28 01:25 | 35.56300 | -97.93387 | 9419 ft | 248 kts | 118° |
| 2026-04-28 01:25 | 35.55679 | -97.91436 | 9193 ft | 248 kts | 117° |
| 2026-04-28 01:25 | 35.55064 | -97.89471 | 8950 ft | 245 kts | 117° |
| 2026-04-28 01:25 | 35.54463 | -97.87538 | 8713 ft | 240 kts | 117° |
| 2026-04-28 01:26 | 35.53876 | -97.85643 | 8506 ft | 234 kts | 117° |
| 2026-04-28 01:26 | 35.53301 | -97.83785 | 8278 ft | 231 kts | 117° |
| 2026-04-28 01:26 | 35.52732 | -97.81950 | 8054 ft | 229 kts | 117° |
| 2026-04-28 01:26 | 35.52168 | -97.80132 | 7833 ft | 227 kts | 117° |
| 2026-04-28 01:27 | 35.51612 | -97.78336 | 7690 ft | 221 kts | 116° |
| 2026-04-28 01:27 | 35.51065 | -97.76575 | 7589 ft | 220 kts | 116° |
| 2026-04-28 01:27 | 35.50515 | -97.74808 | 7511 ft | 220 kts | 116° |
| 2026-04-28 01:27 | 35.49979 | -97.73078 | 7397 ft | 214 kts | 117° |
| 2026-04-28 01:28 | 35.49236 | -97.71589 | 7245 ft | 198 kts | 148° |
| 2026-04-28 01:28 | 35.48036 | -97.70924 | 7100 ft | 187 kts | 175° |
| 2026-04-28 01:28 | 35.47184 | -97.70822 | 6983 ft | 185 kts | 183° |
| 2026-04-28 01:28 | 35.45890 | -97.70792 | 6789 ft | 187 kts | 184° |
| 2026-04-28 01:29 | 35.44162 | -97.70767 | 6519 ft | 187 kts | 184° |
| 2026-04-28 01:29 | 35.43302 | -97.70752 | 6369 ft | 185 kts | 183° |
| 2026-04-28 01:29 | 35.42022 | -97.70726 | 6157 ft | 182 kts | 183° |
| 2026-04-28 01:29 | 35.40756 | -97.70706 | 5990 ft | 181 kts | 183° |
| 2026-04-28 01:30 | 35.39488 | -97.70707 | 5900 ft | 184 kts | 183° |
| 2026-04-28 01:30 | 35.38194 | -97.70710 | 5777 ft | 187 kts | 183° |
| 2026-04-28 01:30 | 35.36884 | -97.70710 | 5633 ft | 187 kts | 182° |
| 2026-04-28 01:30 | 35.35585 | -97.70710 | 5505 ft | 186 kts | 182° |
| 2026-04-28 01:31 | 35.34320 | -97.70709 | 5395 ft | 184 kts | 182° |
| 2026-04-28 01:31 | 35.33030 | -97.70709 | 5286 ft | 187 kts | 181° |
| 2026-04-28 01:31 | 35.31709 | -97.70728 | 5174 ft | 190 kts | 182° |
| 2026-04-28 01:31 | 35.30383 | -97.70675 | 5049 ft | 191 kts | 179° |
| 2026-04-28 01:32 | 35.29051 | -97.70615 | 4945 ft | 192 kts | 179° |
| 2026-04-28 01:32 | 35.27713 | -97.70563 | 4847 ft | 193 kts | 179° |
| 2026-04-28 01:32 | 35.26370 | -97.70520 | 4755 ft | 193 kts | 179° |
| 2026-04-28 01:32 | 35.25027 | -97.70483 | 4694 ft | 191 kts | 179° |
| 2026-04-28 01:33 | 35.23699 | -97.70445 | 4627 ft | 190 kts | 179° |
| 2026-04-28 01:33 | 35.22388 | -97.70410 | 4579 ft | 188 kts | 179° |
| 2026-04-28 01:33 | 35.21088 | -97.70379 | 4550 ft | 186 kts | 179° |
| 2026-04-28 01:33 | 35.19772 | -97.70350 | 4534 ft | 191 kts | 179° |
| 2026-04-28 01:34 | 35.18455 | -97.70321 | 4511 ft | 191 kts | 179° |
| 2026-04-28 01:34 | 35.17129 | -97.70293 | 4502 ft | 190 kts | 179° |
| 2026-04-28 01:34 | 35.15805 | -97.70265 | 4501 ft | 189 kts | 179° |
| 2026-04-28 01:34 | 35.14491 | -97.70211 | 4491 ft | 190 kts | 170° |
| 2026-04-28 01:35 | 35.13404 | -97.69379 | 4481 ft | 191 kts | 121° |
| 2026-04-28 01:35 | 35.13197 | -97.67817 | 4487 ft | 191 kts | 75° |
| 2026-04-28 01:35 | 35.13810 | -97.66385 | 4465 ft | 194 kts | 45° |
| 2026-04-28 01:35 | 35.14859 | -97.65362 | 4416 ft | 192 kts | 35° |
| 2026-04-28 01:36 | 35.15961 | -97.64435 | 4353 ft | 192 kts | 34° |
| 2026-04-28 01:36 | 35.17059 | -97.63511 | 4290 ft | 191 kts | 34° |
| 2026-04-28 01:36 | 35.18139 | -97.62590 | 4216 ft | 187 kts | 35° |
| 2026-04-28 01:36 | 35.19193 | -97.61685 | 4151 ft | 183 kts | 34° |
| 2026-04-28 01:37 | 35.20215 | -97.60802 | 4097 ft | 177 kts | 34° |
| 2026-04-28 01:37 | 35.21207 | -97.59943 | 4044 ft | 172 kts | 35° |
| 2026-04-28 01:37 | 35.22202 | -97.59174 | 3965 ft | 167 kts | 19° |
| 2026-04-28 01:37 | 35.23319 | -97.59000 | 3920 ft | 162 kts | 4° |
| 2026-04-28 01:38 | 35.24447 | -97.58929 | 3721 ft | 158 kts | 3° |
| 2026-04-28 01:38 | 35.25520 | -97.58904 | 3533 ft | 153 kts | 2° |
| 2026-04-28 01:38 | 35.26581 | -97.58896 | 3350 ft | 152 kts | 1° |
| 2026-04-28 01:38 | 35.27622 | -97.58895 | 3161 ft | 147 kts | 1° |
| 2026-04-28 01:39 | 35.28639 | -97.58895 | 2991 ft | 144 kts | 0° |
| 2026-04-28 01:39 | 35.29648 | -97.58909 | 2826 ft | 145 kts | 1° |
| 2026-04-28 01:39 | 35.30659 | -97.58933 | 2629 ft | 145 kts | 1° |
| 2026-04-28 01:39 | 35.31649 | -97.58899 | 2435 ft | 140 kts | 2° |
| 2026-04-28 01:40 | 35.32630 | -97.58894 | 2233 ft | 142 kts | 0° |
| 2026-04-28 01:40 | 35.33610 | -97.58906 | 2079 ft | 142 kts | 2° |
| 2026-04-28 01:40 | 35.34604 | -97.58896 | 1888 ft | 143 kts | 2° |
| 2026-04-28 01:40 | 35.35596 | -97.58902 | 1733 ft | 143 kts | 2° |
| 2026-04-28 01:41 | 35.36608 | -97.58895 | 1573 ft | 148 kts | 2° |
| 2026-04-28 01:41 | 35.37641 | -97.58897 | 1375 ft | 147 kts | 4° |
| 2026-04-28 01:41 | 35.38612 | -97.58894 | 1293 ft | 121 kts | 0° |
| 2026-04-28 01:41 | 35.39250 | -97.58894 | 1295 ft | 61 kts | 359° |
| 2026-04-28 01:42 | 35.39581 | -97.58895 | 1294 ft | 34 kts | 358° |
| 2026-04-28 01:42 | 35.39713 | -97.58956 | 1295 ft | 13 kts | 299° |
| 2026-04-28 01:42 | 35.39720 | -97.59015 | 1297 ft | 0 kts | 269° |
| 2026-04-28 01:43 | 35.39720 | -97.59072 | 1298 ft | 12 kts | 269° |
| 2026-04-28 01:43 | 35.39675 | -97.59148 | 1298 ft | 15 kts | 184° |
| 2026-04-28 01:43 | 35.39557 | -97.59148 | 1297 ft | 16 kts | 176° |
| 2026-04-28 01:43 | 35.39485 | -97.59153 | 1297 ft | 5 kts | 217° |
| 2026-04-28 01:44 | 35.39470 | -97.59186 | 1297 ft | 7 kts | 241° |
| 2026-04-28 01:44 | 35.39404 | -97.59236 | 1296 ft | 13 kts | 219° |
| 2026-04-28 01:44 | 35.39385 | -97.59340 | 1297 ft | 10 kts | 270° |
| 2026-04-28 01:44 | 35.39415 | -97.59407 | 1299 ft | 7 kts | 313° |
| 2026-04-28 01:45 | 35.39456 | -97.59442 | 1300 ft | 7 kts | 316° |
| 2026-04-28 01:45 | 35.39478 | -97.59472 | 1300 ft | 2 kts | 311° |
| 2026-04-28 01:45 | 35.39484 | -97.59480 | 1300 ft | 0 kts | 311° |
| 2026-04-28 01:45 | 35.39486 | -97.59483 | 1300 ft | 0 kts | 311° |